createdAt,value
2018-04-13T00:01:38.759Z,94.90
2018-04-13T00:04:06.979Z,94.60
2018-04-13T00:06:34.432Z,94.60
2018-04-13T00:09:02.680Z,93.90
2018-04-13T00:11:30.139Z,93.90
2018-04-13T00:13:57.656Z,93.60
2018-04-13T00:16:25.961Z,94.10
2018-04-13T00:18:53.419Z,94.10
2018-04-13T00:21:20.928Z,94.10
2018-04-13T00:23:48.423Z,93.90
2018-04-13T00:26:15.879Z,94.00
2018-04-13T00:28:43.373Z,93.90
2018-04-13T00:31:10.828Z,93.60
2018-04-13T00:33:38.432Z,93.60
2018-04-13T00:36:05.917Z,93.60
2018-04-13T00:38:33.402Z,93.60
2018-04-13T00:41:00.857Z,93.40
2018-04-13T00:43:28.315Z,93.30
2018-04-13T00:45:55.769Z,93.30
2018-04-13T00:48:23.260Z,93.40
2018-04-13T00:50:50.715Z,93.40
2018-04-13T00:53:28.789Z,93.70
2018-04-13T00:55:57.097Z,93.90
2018-04-13T00:58:24.584Z,93.90
2018-04-13T01:00:52.064Z,94.30
2018-04-13T01:03:19.516Z,94.30
2018-04-13T01:05:47.028Z,94.50
2018-04-13T01:08:14.484Z,94.30
2018-04-13T01:10:41.991Z,94.20
2018-04-13T01:13:09.477Z,94.30
2018-04-13T01:15:36.933Z,94.20
2018-04-13T01:18:04.432Z,94.40
2018-04-13T01:20:31.883Z,94.70
2018-04-13T01:22:59.402Z,95.10
2018-04-13T01:25:26.885Z,95.10
2018-04-13T01:27:54.388Z,95.80
2018-04-13T01:30:21.842Z,95.80
2018-04-13T01:32:49.339Z,95.50
2018-04-13T01:35:16.983Z,95.40
2018-04-13T01:37:45.195Z,95.70
2018-04-13T01:40:12.713Z,95.70
2018-04-13T01:42:40.165Z,95.60
2018-04-13T01:45:07.674Z,95.70
2018-04-13T01:47:35.125Z,95.80
2018-04-13T01:50:02.632Z,95.50
2018-04-13T01:52:30.085Z,95.50
2018-04-13T01:54:58.299Z,95.60
2018-04-13T01:57:25.813Z,95.60
2018-04-13T01:59:53.270Z,95.40
2018-04-13T02:02:20.774Z,95.50
2018-04-13T02:04:48.226Z,95.70
2018-04-13T02:07:15.679Z,95.50
2018-04-13T02:09:43.128Z,95.40
2018-04-13T02:12:10.579Z,95.70
2018-04-13T02:14:38.048Z,95.70
2018-04-13T02:17:05.565Z,96.00
2018-04-13T02:19:33.037Z,95.80
2018-04-13T02:22:00.533Z,95.60
2018-04-13T02:24:27.990Z,95.40
2018-04-13T02:26:55.471Z,95.90
2018-04-13T02:29:22.929Z,96.10
2018-04-13T02:31:51.143Z,96.30
2018-04-13T02:34:19.409Z,96.30
2018-04-13T02:36:46.880Z,96.30
2018-04-13T02:39:14.374Z,96.50
2018-04-13T02:41:41.846Z,96.70
2018-04-13T02:44:09.326Z,97.00
2018-04-13T02:46:36.779Z,97.30
2018-04-13T02:49:04.236Z,97.30
2018-04-13T02:51:32.457Z,97.60
2018-04-13T02:53:59.908Z,97.60
2018-04-13T02:56:27.399Z,97.70
2018-04-13T02:58:54.871Z,97.80
2018-04-13T03:21:49.696Z,97.90
2018-04-13T03:24:17.194Z,97.50
2018-04-13T03:26:44.686Z,97.80
2018-04-13T03:46:27.894Z,97.70
2018-04-13T03:48:55.384Z,97.60
2018-04-13T03:51:22.905Z,97.40
2018-04-13T03:53:50.395Z,97.10
2018-04-13T03:56:17.889Z,97.10
2018-04-13T03:58:45.382Z,97.10
2018-04-13T04:01:12.983Z,97.60
2018-04-13T04:03:40.447Z,96.90
2018-04-13T04:06:07.930Z,96.70
2018-04-13T04:26:02.558Z,96.70
2018-04-13T04:28:30.079Z,96.50
2018-04-13T04:30:57.542Z,96.70
2018-04-13T04:50:42.186Z,97.50
2018-04-13T04:53:09.724Z,98.10
2018-04-13T04:55:37.237Z,98.20
2018-04-13T04:58:04.823Z,97.90
2018-04-13T05:00:32.290Z,97.90
2018-04-13T05:02:59.890Z,97.70
2018-04-13T05:05:27.355Z,97.30
2018-04-13T05:25:11.174Z,96.90
2018-04-13T05:27:38.636Z,97.20
2018-04-13T05:30:06.097Z,97.20
2018-04-13T05:32:33.564Z,97.00
2018-04-13T05:35:01.060Z,97.20
2018-04-13T05:37:28.541Z,97.10
2018-04-13T05:39:56.035Z,96.90
2018-04-13T05:42:23.601Z,96.20
2018-04-13T05:44:51.216Z,95.70
2018-04-13T05:47:18.805Z,95.20
2018-04-13T05:49:47.099Z,95.90
2018-04-13T05:52:14.563Z,95.70
2018-04-13T05:54:42.045Z,95.50
2018-04-13T05:57:09.509Z,95.50
2018-04-13T05:59:37.033Z,95.10
2018-04-13T06:02:04.664Z,94.90
2018-04-13T06:04:32.131Z,94.70
2018-04-13T06:07:00.168Z,94.30
2018-04-13T06:09:27.632Z,94.20
2018-04-13T06:11:55.099Z,94.90
2018-04-13T06:14:22.564Z,94.50
2018-04-13T06:16:50.060Z,94.30
2018-04-13T06:19:17.536Z,94.30
2018-04-13T06:21:44.999Z,94.00
2018-04-13T06:24:12.553Z,94.20
2018-04-13T06:26:40.033Z,94.00
2018-04-13T06:29:07.557Z,92.40
2018-04-13T06:31:35.025Z,92.20
2018-04-13T06:34:02.514Z,91.90
2018-04-13T06:36:29.989Z,91.70
2018-04-13T06:38:57.483Z,91.20
2018-04-13T06:41:24.983Z,91.30
2018-04-13T06:43:52.539Z,91.90
2018-04-13T06:46:20.100Z,92.20
2018-04-13T06:48:47.616Z,92.30
2018-04-13T06:51:15.119Z,91.50
2018-04-13T06:53:42.632Z,90.40
2018-04-13T06:56:10.127Z,90.20
2018-04-13T06:58:37.586Z,90.60
2018-04-13T07:01:05.137Z,90.80
2018-04-13T07:03:32.598Z,90.80
2018-04-13T07:06:00.064Z,91.00
2018-04-13T07:08:27.551Z,91.00
2018-04-13T07:10:55.032Z,90.90
2018-04-13T07:13:22.595Z,90.80
2018-04-13T07:15:50.145Z,91.40
2018-04-13T07:18:17.613Z,91.40
2018-04-13T07:20:45.153Z,91.50
2018-04-13T07:23:12.761Z,91.60
2018-04-13T07:25:40.276Z,92.20
2018-04-13T07:28:07.751Z,92.00
2018-04-13T07:30:35.259Z,91.80
2018-04-13T07:33:02.810Z,92.40
2018-04-13T07:35:30.307Z,92.00
2018-04-13T07:37:57.784Z,91.70
2018-04-13T07:40:25.414Z,92.60
2018-04-13T07:42:52.919Z,92.00
2018-04-13T07:45:20.387Z,92.40
2018-04-13T07:47:48.144Z,92.70
2018-04-13T07:50:15.621Z,92.90
2018-04-13T07:52:43.182Z,93.20
2018-04-13T07:55:10.700Z,93.20
2018-04-13T07:57:38.171Z,93.90
2018-04-13T08:00:05.674Z,94.10
2018-04-13T08:02:33.147Z,93.80
2018-04-13T08:05:00.784Z,94.30
2018-04-13T08:07:28.253Z,94.10
2018-04-13T08:09:55.771Z,94.20
2018-04-13T08:12:23.260Z,94.30
2018-04-13T08:14:50.775Z,94.60
2018-04-13T08:17:18.271Z,94.80
2018-04-13T08:19:45.732Z,94.90
2018-04-13T08:22:13.248Z,95.10
2018-04-13T08:24:40.708Z,95.70
2018-04-13T08:27:08.202Z,95.90
2018-04-13T08:29:35.680Z,96.20
2018-04-13T08:32:03.211Z,96.10
2018-04-13T08:34:30.689Z,95.70
2018-04-13T08:36:58.176Z,96.20
2018-04-13T08:39:25.680Z,96.00
2018-04-13T08:41:53.146Z,96.00
2018-04-13T08:44:20.710Z,96.10
2018-04-13T08:46:48.127Z,96.30
2018-04-13T08:49:15.764Z,96.30
2018-04-13T08:51:43.098Z,96.10
2018-04-13T08:54:10.582Z,96.90
2018-04-13T08:56:38.064Z,97.30
2018-04-13T08:59:05.540Z,97.10
2018-04-13T09:01:33.028Z,97.20
2018-04-13T09:04:00.536Z,98.20
2018-04-13T09:06:28.062Z,98.50
2018-04-13T09:08:55.503Z,98.40
2018-04-13T09:11:23.012Z,98.80
2018-04-13T09:13:50.482Z,98.30
2018-04-13T09:16:17.970Z,98.20
2018-04-13T09:18:45.432Z,98.40
2018-04-13T09:21:12.907Z,98.60
2018-04-13T09:23:40.363Z,98.50
2018-04-13T09:26:07.848Z,98.80
2018-04-13T09:28:35.458Z,98.50
2018-04-13T09:31:02.933Z,98.80
2018-04-13T09:33:30.428Z,99.40
2018-04-13T09:35:57.923Z,99.60
2018-04-13T09:38:25.434Z,99.80
2018-04-13T09:58:09.810Z,99.90
2018-04-13T10:00:37.292Z,99.60
2018-04-13T10:03:10.302Z,99.10
2018-04-13T10:05:37.837Z,99.80
2018-04-13T10:08:05.259Z,99.90
2018-04-13T10:10:33.658Z,99.90
2018-04-13T10:13:01.122Z,99.90
2018-04-13T10:15:28.586Z,99.80
2018-04-13T10:17:56.120Z,99.90
2018-04-13T10:20:23.639Z,99.60
2018-04-13T10:22:51.124Z,98.70
2018-04-13T10:25:18.631Z,99.70
2018-04-13T10:27:46.120Z,99.20
2018-04-13T10:30:13.596Z,99.40
2018-04-13T10:32:41.157Z,98.60
2018-04-13T10:35:08.717Z,98.10
2018-04-13T10:37:36.209Z,98.20
2018-04-13T10:40:03.719Z,98.70
2018-04-13T10:42:31.177Z,98.90
2018-04-13T10:44:58.737Z,98.00
2018-04-13T10:47:26.211Z,97.10
2018-04-13T10:49:53.676Z,95.80
2018-04-13T10:52:21.213Z,95.00
2018-04-13T10:54:48.684Z,93.40
2018-04-13T10:57:16.214Z,91.90
2018-04-13T10:59:43.686Z,89.70
2018-04-13T11:02:11.153Z,86.20
2018-04-13T11:04:38.617Z,83.10
2018-04-13T11:07:06.200Z,82.00
2018-04-13T11:09:33.684Z,85.40
2018-04-13T11:12:01.168Z,76.40
2018-04-13T11:14:28.640Z,72.90
2018-04-13T11:16:56.094Z,74.40
2018-04-13T11:19:23.568Z,75.80
2018-04-13T11:21:51.034Z,74.40
2018-04-13T11:24:18.844Z,77.40
2018-04-13T11:26:46.299Z,80.30
2018-04-13T11:29:13.757Z,80.30
2018-04-13T11:31:41.316Z,82.70
2018-04-13T11:34:08.779Z,85.90
2018-04-13T11:36:36.264Z,87.80
2018-04-13T11:39:03.725Z,87.60
2018-04-13T11:41:31.198Z,86.10
2018-04-13T11:43:58.656Z,84.90
2018-04-13T11:46:26.335Z,87.90
2018-04-13T11:48:53.791Z,90.20
2018-04-13T11:51:21.270Z,90.50
2018-04-13T11:53:48.884Z,90.20
2018-04-13T11:56:16.342Z,88.20
2018-04-13T11:58:43.805Z,84.30
2018-04-13T12:01:11.269Z,89.10
2018-04-13T12:03:38.779Z,90.00
2018-04-13T12:06:06.311Z,86.80
2018-04-13T12:08:33.863Z,85.10
2018-04-13T12:11:01.341Z,84.20
2018-04-13T12:13:28.803Z,82.30
2018-04-13T12:15:56.329Z,79.10
2018-04-13T12:18:23.849Z,78.60
2018-04-13T12:20:51.314Z,80.90
2018-04-13T12:23:18.810Z,81.80
2018-04-13T12:25:46.264Z,86.40
2018-04-13T12:28:13.810Z,83.60
2018-04-13T12:30:41.371Z,83.40
2018-04-13T12:33:08.823Z,83.60
2018-04-13T12:35:36.388Z,84.50
2018-04-13T12:38:04.107Z,86.50
2018-04-13T12:40:31.576Z,89.60
2018-04-13T12:42:59.061Z,85.40
2018-04-13T12:45:26.578Z,81.00
2018-04-13T12:47:54.102Z,80.10
2018-04-13T12:50:21.563Z,77.70
2018-04-13T12:52:49.160Z,75.30
2018-04-13T12:55:16.567Z,75.40
2018-04-13T12:57:44.063Z,70.10
2018-04-13T13:00:11.585Z,70.80
2018-04-13T13:02:39.161Z,70.30
2018-04-13T13:05:06.626Z,71.80
2018-04-13T13:07:34.135Z,73.80
2018-04-13T13:10:01.611Z,70.30
2018-04-13T13:12:29.163Z,70.00
2018-04-13T13:32:14.422Z,65.40
2018-04-13T13:34:41.891Z,68.50
2018-04-13T13:37:09.450Z,71.10
2018-04-13T13:39:36.996Z,75.00
2018-04-13T13:42:04.462Z,78.00
2018-04-13T13:44:31.917Z,80.10
2018-04-13T13:46:59.404Z,80.70
2018-04-13T13:49:26.883Z,80.50
2018-04-13T13:51:54.365Z,81.50
2018-04-13T13:54:21.827Z,84.80
2018-04-13T13:56:49.286Z,86.50
2018-04-13T13:59:16.740Z,88.80
2018-04-13T14:01:44.243Z,90.10
2018-04-13T14:04:11.750Z,92.30
2018-04-13T14:06:39.234Z,93.00
2018-04-13T14:09:06.766Z,92.60
2018-04-13T14:11:34.225Z,93.50
2018-04-13T14:14:01.692Z,93.20
2018-04-13T14:16:29.161Z,92.60
2018-04-13T14:18:56.615Z,92.50
2018-04-13T14:21:24.091Z,91.40
2018-04-13T14:23:51.555Z,91.40
2018-04-13T14:26:19.025Z,91.20
2018-04-13T14:28:46.568Z,89.50
2018-04-13T14:48:30.515Z,87.20
2018-04-13T14:50:57.979Z,89.50
2018-04-13T14:53:25.496Z,90.40
2018-04-13T15:13:09.038Z,89.80
2018-04-13T15:15:36.505Z,88.80
2018-04-13T15:18:04.013Z,90.90
2018-04-13T15:20:31.494Z,90.50
2018-04-13T15:22:58.973Z,90.60
2018-04-13T15:25:26.431Z,91.40
2018-04-13T15:27:53.908Z,91.20
2018-04-13T15:30:21.427Z,91.00
2018-04-13T15:32:48.884Z,91.30
2018-04-13T15:52:32.192Z,93.10
2018-04-13T16:12:15.067Z,93.80
2018-04-13T16:31:58.978Z,96.30
2018-04-13T17:06:06.241Z,97.20
2018-04-13T17:08:33.779Z,97.40
2018-04-13T17:11:01.289Z,97.90
2018-04-13T17:13:28.772Z,97.40
2018-04-13T17:15:56.323Z,97.30
2018-04-13T17:35:39.987Z,98.40
2018-04-13T18:12:38.935Z,98.50
2018-04-13T18:15:06.453Z,99.00
2018-04-13T18:34:52.645Z,99.20
2018-04-13T18:37:20.158Z,98.80
2018-04-13T18:39:47.675Z,99.40
2018-04-13T18:59:31.790Z,98.60
2018-04-13T19:19:15.504Z,97.90
2018-04-13T19:38:58.750Z,98.30
2018-04-13T19:41:26.253Z,98.50
2018-04-13T20:01:12.309Z,98.90
2018-04-13T20:03:39.841Z,99.10
2018-04-13T20:06:07.360Z,99.30
2018-04-13T20:08:34.894Z,99.00
2018-04-13T20:11:02.381Z,99.20
2018-04-13T20:13:29.837Z,99.20
2018-04-13T20:15:57.311Z,99.00
2018-04-13T20:55:51.321Z,99.90
2018-04-13T21:04:28.386Z,99.90
2018-04-13T21:06:55.871Z,99.90
2018-04-13T21:09:23.331Z,99.90
2018-04-13T21:11:50.793Z,99.90
2018-04-13T21:14:18.261Z,99.90
2018-04-13T21:16:46.518Z,99.90
2018-04-13T21:19:14.028Z,99.90
2018-04-13T21:21:41.523Z,99.90
2018-04-13T21:24:09.177Z,99.90
2018-04-13T21:26:36.790Z,99.90
2018-04-13T21:29:04.482Z,99.90
2018-04-13T21:31:32.235Z,99.90
2018-04-13T21:33:59.842Z,99.90
2018-04-13T21:36:27.416Z,99.90
2018-04-13T21:56:10.315Z,99.90
2018-04-13T21:58:37.912Z,99.90
2018-04-13T22:18:22.844Z,99.90
2018-04-13T22:20:50.316Z,99.90
2018-04-13T22:23:17.803Z,99.90
2018-04-13T22:25:51.016Z,99.90
2018-04-13T22:28:18.465Z,99.90
2018-04-13T22:30:45.922Z,99.90
2018-04-13T22:33:13.438Z,99.90
2018-04-13T22:35:40.957Z,99.90
2018-04-13T22:55:23.748Z,99.90
2018-04-13T22:57:51.239Z,99.90
2018-04-13T23:00:18.718Z,99.90
2018-04-13T23:02:46.180Z,99.90
2018-04-13T23:05:13.651Z,99.90
2018-04-13T23:07:41.150Z,99.90
2018-04-13T23:10:08.624Z,99.90
2018-04-13T23:12:36.078Z,99.90
2018-04-13T23:15:03.604Z,99.90
2018-04-13T23:17:31.084Z,99.90
2018-04-13T23:19:58.551Z,99.90
2018-04-13T23:22:36.856Z,99.90
2018-04-13T23:25:04.327Z,99.90
2018-04-13T23:27:31.796Z,99.90
2018-04-13T23:29:59.276Z,99.90
2018-04-13T23:32:26.753Z,99.90
2018-04-13T23:34:54.220Z,99.90
2018-04-13T23:37:21.723Z,99.90
2018-04-13T23:39:49.195Z,99.90
2018-04-13T23:42:16.672Z,99.90
2018-04-13T23:44:44.147Z,99.90
2018-04-13T23:47:11.655Z,99.90
2018-04-13T23:49:39.120Z,99.90
2018-04-13T23:52:06.685Z,99.90
2018-04-13T23:54:34.216Z,99.90
2018-04-13T23:57:01.777Z,99.90
2018-04-13T23:59:29.244Z,99.90
